createdAt,value
2023-04-19T00:00:09.988Z,9.70
2023-04-19T00:03:00.594Z,9.58
2023-04-19T00:05:35.504Z,9.47
2023-04-19T00:08:09.102Z,9.37
2023-04-19T00:10:49.801Z,9.26
2023-04-19T00:13:19.394Z,9.20
2023-04-19T00:15:54.546Z,9.17
2023-04-19T00:18:23.576Z,9.13
2023-04-19T00:20:54.899Z,9.10
2023-04-19T00:23:26.789Z,9.04
2023-04-19T00:26:03.928Z,9.00
2023-04-19T00:28:34.645Z,8.96
2023-04-19T00:31:06.708Z,8.93
2023-04-19T00:33:53.742Z,8.89
2023-04-19T00:36:40.715Z,8.86
2023-04-19T00:39:09.435Z,8.84
2023-04-19T00:41:42.864Z,8.78
2023-04-19T00:44:23.886Z,8.75
2023-04-19T00:47:00.684Z,8.69
2023-04-19T00:49:32.626Z,8.67
2023-04-19T00:52:01.396Z,8.67
2023-04-19T00:54:31.078Z,8.64
2023-04-19T00:57:00.992Z,8.57
2023-04-19T00:59:31.586Z,8.51
2023-04-19T01:02:01.140Z,8.44
2023-04-19T01:04:31.967Z,8.39
2023-04-19T01:07:03.099Z,8.35
2023-04-19T01:09:32.511Z,8.28
2023-04-19T01:12:03.252Z,8.23
2023-04-19T01:14:32.537Z,8.15
2023-04-19T01:17:03.611Z,8.09
2023-04-19T01:19:36.738Z,8.05
2023-04-19T01:22:06.394Z,7.97
2023-04-19T01:24:35.906Z,7.94
2023-04-19T01:27:06.045Z,7.90
2023-04-19T01:29:40.623Z,7.87
2023-04-19T01:32:12.190Z,7.86
2023-04-19T01:34:42.677Z,7.83
2023-04-19T01:37:13.972Z,7.81
2023-04-19T01:39:43.659Z,7.83
2023-04-19T01:42:12.486Z,7.87
2023-04-19T01:44:43.568Z,7.90
2023-04-19T01:47:16.235Z,7.90
2023-04-19T01:49:45.810Z,7.88
2023-04-19T01:52:17.117Z,7.88
2023-04-19T01:54:55.952Z,7.75
2023-04-19T01:57:25.058Z,7.62
2023-04-19T01:59:54.242Z,7.56
2023-04-19T02:02:25.850Z,7.52
2023-04-19T02:04:59.132Z,7.39
2023-04-19T02:07:34.490Z,7.35
2023-04-19T02:10:08.822Z,7.30
2023-04-19T02:12:37.964Z,7.31
2023-04-19T02:15:08.001Z,7.29
2023-04-19T02:17:39.543Z,7.28
2023-04-19T02:20:09.143Z,7.21
2023-04-19T02:22:38.000Z,7.16
2023-04-19T02:25:10.260Z,7.09
2023-04-19T02:27:39.158Z,7.01
2023-04-19T02:30:09.469Z,6.97
2023-04-19T02:32:38.567Z,6.96
2023-04-19T02:35:08.676Z,6.97
2023-04-19T02:37:37.681Z,6.95
2023-04-19T02:40:10.509Z,6.95
2023-04-19T02:42:39.185Z,6.91
2023-04-19T02:45:11.594Z,6.89
2023-04-19T02:47:40.544Z,6.91
2023-04-19T02:50:10.108Z,6.85
2023-04-19T02:52:43.916Z,6.83
2023-04-19T02:55:15.990Z,6.83
2023-04-19T02:57:46.168Z,6.73
2023-04-19T03:00:15.701Z,6.71
2023-04-19T03:02:50.441Z,6.70
2023-04-19T03:05:19.583Z,6.72
2023-04-19T03:07:48.971Z,6.62
2023-04-19T03:10:20.941Z,6.51
2023-04-19T03:12:49.801Z,6.44
2023-04-19T03:15:20.541Z,6.35
2023-04-19T03:17:50.182Z,6.26
2023-04-19T03:20:20.491Z,6.18
2023-04-19T03:22:49.641Z,6.07
2023-04-19T03:25:19.388Z,6.01
2023-04-19T03:27:53.703Z,5.93
2023-04-19T03:30:33.109Z,5.86
2023-04-19T03:33:06.376Z,5.86
2023-04-19T03:35:36.916Z,5.87
2023-04-19T03:38:14.002Z,5.87
2023-04-19T03:40:43.528Z,5.89
2023-04-19T03:43:15.488Z,5.93
2023-04-19T03:45:56.789Z,5.97
2023-04-19T03:48:31.546Z,6.01
2023-04-19T03:51:02.185Z,6.04
2023-04-19T03:53:31.672Z,6.04
2023-04-19T03:56:07.397Z,6.06
2023-04-19T03:58:43.434Z,6.05
2023-04-19T04:01:26.486Z,6.06
2023-04-19T04:04:09.488Z,6.04
2023-04-19T04:07:04.354Z,6.03
2023-04-19T04:12:29.344Z,6.01
2023-04-19T04:15:01.690Z,5.99
2023-04-19T04:17:34.630Z,5.88
2023-04-19T04:20:05.376Z,5.88
2023-04-19T04:22:40.004Z,5.90
2023-04-19T04:25:15.498Z,5.89
2023-04-19T04:27:45.352Z,5.88
2023-04-19T04:30:18.250Z,5.86
2023-04-19T04:32:47.446Z,5.87
2023-04-19T04:35:17.215Z,5.87
2023-04-19T04:37:57.812Z,5.90
2023-04-19T04:40:30.723Z,5.93
2023-04-19T04:43:04.807Z,5.91
2023-04-19T04:45:37.557Z,5.91
2023-04-19T04:48:09.021Z,5.90
2023-04-19T04:50:46.670Z,5.86
2023-04-19T04:53:15.737Z,5.88
2023-04-19T04:55:51.412Z,5.93
2023-04-19T04:58:25.466Z,5.92
2023-04-19T05:01:09.711Z,5.94
2023-04-19T05:03:42.595Z,5.98
2023-04-19T05:06:15.081Z,6.03
2023-04-19T05:08:48.690Z,6.05
2023-04-19T05:11:44.402Z,6.01
2023-04-19T05:14:15.805Z,6.03
2023-04-19T05:16:47.853Z,6.02
2023-04-19T05:19:20.207Z,6.07
2023-04-19T05:21:54.680Z,6.08
2023-04-19T05:24:27.564Z,6.07
2023-04-19T05:27:03.572Z,6.11
2023-04-19T05:29:37.419Z,6.16
2023-04-19T05:32:11.287Z,6.10
2023-04-19T05:34:48.018Z,6.10
2023-04-19T05:37:24.411Z,6.09
2023-04-19T05:39:57.943Z,6.04
2023-04-19T05:42:40.463Z,6.11
2023-04-19T05:45:45.646Z,6.20
2023-04-19T05:48:20.306Z,6.29
2023-04-19T05:51:22.117Z,6.36
2023-04-19T05:54:12.321Z,6.41
2023-04-19T05:56:49.412Z,6.44
2023-04-19T05:59:26.607Z,6.46
2023-04-19T06:02:07.709Z,6.47
2023-04-19T06:04:40.737Z,6.47
2023-04-19T06:07:33.935Z,6.46
2023-04-19T06:10:15.717Z,6.46
2023-04-19T06:12:46.796Z,6.49
2023-04-19T06:15:24.164Z,6.52
2023-04-19T06:18:05.300Z,6.53
2023-04-19T06:20:43.261Z,6.53
2023-04-19T06:23:23.347Z,6.56
2023-04-19T06:25:55.964Z,6.63
2023-04-19T06:28:29.354Z,6.61
2023-04-19T06:31:04.782Z,6.51
2023-04-19T06:33:34.990Z,6.50
2023-04-19T06:36:07.191Z,6.47
2023-04-19T06:38:44.295Z,6.50
2023-04-19T06:41:22.960Z,6.51
2023-04-19T06:43:55.513Z,6.48
2023-04-19T06:46:24.649Z,6.46
2023-04-19T06:48:58.641Z,6.41
2023-04-19T06:51:27.698Z,6.39
2023-04-19T06:54:00.152Z,6.28
2023-04-19T06:56:45.321Z,6.27
2023-04-19T06:59:19.309Z,6.38
2023-04-19T07:01:57.935Z,6.50
2023-04-19T07:04:34.587Z,6.59
2023-04-19T07:07:05.530Z,6.72
2023-04-19T07:09:36.336Z,6.86
2023-04-19T07:12:12.526Z,7.05
2023-04-19T07:14:44.506Z,7.25
2023-04-19T07:17:18.372Z,7.50
2023-04-19T07:19:52.481Z,8.05
2023-04-19T07:22:35.470Z,8.46
2023-04-19T07:25:05.488Z,8.66
2023-04-19T07:27:37.636Z,8.83
2023-04-19T07:30:07.554Z,9.01
2023-04-19T07:32:42.061Z,9.15
2023-04-19T07:35:28.240Z,9.17
2023-04-19T07:38:04.110Z,9.06
2023-04-19T07:40:38.367Z,8.93
2023-04-19T07:43:17.069Z,8.85
2023-04-19T07:45:55.527Z,8.79
2023-04-19T07:48:38.378Z,8.66
2023-04-19T07:51:13.780Z,8.48
2023-04-19T07:53:46.614Z,8.33
2023-04-19T07:56:28.970Z,8.20
2023-04-19T07:59:07.814Z,8.18
2023-04-19T08:01:45.577Z,8.19
2023-04-19T08:04:22.923Z,8.40
2023-04-19T08:07:07.500Z,8.48
2023-04-19T08:09:55.988Z,8.47
2023-04-19T08:12:38.320Z,8.37
2023-04-19T08:15:36.140Z,8.30
2023-04-19T08:17:59.006Z,8.24
2023-04-19T08:20:42.241Z,8.22
2023-04-19T08:23:24.531Z,8.21
2023-04-19T08:26:00.203Z,8.24
2023-04-19T08:28:36.054Z,8.23
2023-04-19T08:31:11.094Z,8.21
2023-04-19T08:33:45.723Z,8.10
2023-04-19T08:36:32.410Z,8.13
2023-04-19T08:39:29.123Z,8.13
2023-04-19T08:42:24.553Z,8.18
2023-04-19T08:45:27.121Z,8.18
2023-04-19T08:48:03.110Z,8.05
2023-04-19T08:50:48.419Z,8.06
2023-04-19T08:53:25.459Z,8.07
2023-04-19T08:59:04.061Z,8.12
2023-04-19T09:01:54.088Z,8.12
2023-04-19T09:04:36.489Z,8.08
2023-04-19T09:07:10.596Z,8.02
2023-04-19T09:10:13.647Z,8.02
2023-04-19T09:13:04.926Z,8.03
2023-04-19T09:15:40.895Z,8.02
2023-04-19T09:18:15.660Z,7.99
2023-04-19T09:20:48.403Z,7.93
2023-04-19T09:23:37.362Z,7.91
2023-04-19T09:26:23.257Z,7.86
2023-04-19T09:29:06.459Z,7.74
2023-04-19T09:31:51.442Z,7.58
2023-04-19T09:34:23.826Z,7.51
2023-04-19T09:37:17.725Z,7.48
2023-04-19T09:40:32.066Z,7.49
2023-04-19T09:45:51.378Z,7.58
2023-04-19T09:48:27.424Z,7.67
2023-04-19T09:51:05.812Z,7.86
2023-04-19T09:53:46.111Z,7.95
2023-04-19T09:56:26.854Z,7.98
2023-04-19T09:59:21.457Z,7.95
2023-04-19T10:01:57.821Z,7.90
2023-04-19T10:04:44.022Z,7.87
2023-04-19T10:08:02.133Z,7.83
2023-04-19T10:10:41.890Z,7.83
2023-04-19T10:13:26.670Z,7.83
2023-04-19T10:16:01.782Z,7.90
2023-04-19T10:19:11.092Z,7.93
2023-04-19T10:21:47.116Z,7.90
2023-04-19T10:24:21.129Z,7.91
2023-04-19T10:27:15.210Z,7.86
2023-04-19T10:30:28.758Z,7.91
2023-04-19T10:33:42.066Z,7.99
2023-04-19T10:36:20.354Z,8.03
2023-04-19T10:38:56.620Z,8.00
2023-04-19T10:41:59.082Z,7.97
2023-04-19T10:44:32.016Z,7.99
2023-04-19T10:52:12.857Z,7.96
2023-04-19T10:55:19.127Z,7.94
2023-04-19T10:58:14.257Z,7.93
2023-04-19T11:05:11.153Z,8.04
2023-04-19T11:07:57.344Z,8.17
2023-04-19T11:11:30.163Z,8.28
2023-04-19T11:14:12.019Z,8.37
2023-04-19T11:17:08.005Z,8.42
2023-04-19T11:23:01.439Z,8.44
2023-04-19T11:25:38.507Z,8.43
2023-04-19T11:28:33.145Z,8.47
2023-04-19T11:31:04.249Z,8.52
2023-04-19T11:33:36.944Z,8.58
2023-04-19T11:36:58.279Z,8.61
2023-04-19T11:39:50.212Z,8.67
2023-04-19T11:42:32.878Z,8.79
2023-04-19T11:45:31.254Z,8.92
2023-04-19T11:48:16.839Z,8.98
2023-04-19T11:50:49.046Z,9.07
2023-04-19T11:53:46.201Z,9.10
2023-04-19T11:56:19.138Z,9.11
2023-04-19T11:58:53.080Z,9.16
2023-04-19T12:01:25.059Z,9.21
2023-04-19T12:03:57.288Z,9.11
2023-04-19T12:06:31.555Z,8.90
2023-04-19T12:09:03.688Z,8.85
2023-04-19T12:11:50.790Z,8.86
2023-04-19T12:14:31.245Z,8.87
2023-04-19T12:17:09.817Z,8.85
2023-04-19T12:19:54.000Z,8.91
2023-04-19T12:22:29.528Z,8.98
2023-04-19T12:24:59.007Z,8.97
2023-04-19T12:27:28.151Z,9.01
2023-04-19T12:30:04.336Z,8.99
2023-04-19T12:32:38.216Z,9.02
2023-04-19T12:35:22.307Z,9.00
2023-04-19T12:38:01.921Z,8.93
2023-04-19T12:40:38.839Z,8.83
2023-04-19T12:43:10.970Z,8.81
2023-04-19T12:45:45.339Z,8.84
2023-04-19T12:48:25.335Z,8.88
2023-04-19T12:51:01.092Z,8.95
2023-04-19T12:53:37.622Z,8.97
2023-04-19T12:56:18.762Z,8.99
2023-04-19T12:58:53.926Z,9.06
2023-04-19T13:01:29.963Z,9.18
2023-04-19T13:04:28.608Z,9.26
2023-04-19T13:07:10.154Z,9.43
2023-04-19T13:09:46.303Z,9.59
2023-04-19T13:12:34.054Z,9.71
2023-04-19T13:15:12.261Z,9.84
2023-04-19T13:17:46.917Z,9.87
2023-04-19T13:20:29.031Z,9.77
2023-04-19T13:23:08.370Z,9.68
2023-04-19T13:25:40.784Z,9.61
2023-04-19T13:28:21.312Z,9.58
2023-04-19T13:30:56.758Z,9.61
2023-04-19T13:33:40.596Z,9.58
2023-04-19T13:36:30.391Z,9.64
2023-04-19T13:39:12.290Z,9.66
2023-04-19T13:43:01.020Z,9.64
2023-04-19T13:45:48.180Z,9.60
2023-04-19T13:48:31.848Z,9.65
2023-04-19T13:51:42.767Z,9.70
2023-04-19T13:54:22.986Z,9.69
2023-04-19T13:57:29.512Z,9.73
2023-04-19T14:00:37.854Z,9.80
2023-04-19T14:03:29.368Z,9.83
2023-04-19T14:06:01.627Z,9.81
2023-04-19T14:08:41.059Z,9.78
2023-04-19T14:11:26.759Z,9.78
2023-04-19T14:14:31.620Z,9.79
2023-04-19T14:17:19.764Z,9.75
2023-04-19T14:20:15.718Z,9.80
2023-04-19T14:23:07.844Z,9.88
2023-04-19T14:26:28.819Z,9.94
2023-04-19T14:29:31.206Z,9.93
2023-04-19T14:32:26.530Z,10.06
2023-04-19T14:35:24.074Z,10.18
2023-04-19T14:38:01.510Z,10.23
2023-04-19T14:40:58.715Z,10.35
2023-04-19T14:44:59.620Z,10.46
2023-04-19T14:48:10.408Z,10.62
2023-04-19T14:51:07.709Z,10.77
2023-04-19T14:54:10.465Z,10.91
2023-04-19T14:57:16.515Z,11.04
2023-04-19T15:00:12.972Z,11.10
2023-04-19T15:07:32.364Z,11.10
2023-04-19T15:10:38.221Z,11.08
2023-04-19T15:16:40.465Z,11.03
2023-04-19T15:19:40.927Z,10.96
2023-04-19T15:22:39.604Z,10.87
2023-04-19T15:29:49.664Z,10.81
2023-04-19T15:32:36.353Z,10.76
2023-04-19T15:36:20.546Z,10.71
2023-04-19T15:39:27.275Z,10.53
2023-04-19T15:43:22.466Z,10.49
2023-04-19T15:46:40.277Z,10.50
2023-04-19T15:53:19.577Z,10.44
2023-04-19T16:00:11.890Z,10.36
2023-04-19T16:03:02.469Z,10.32
2023-04-19T16:09:24.456Z,10.27
2023-04-19T16:12:24.421Z,10.20
2023-04-19T16:15:15.856Z,10.18
2023-04-19T16:17:57.275Z,10.08
2023-04-19T16:21:16.443Z,10.05
2023-04-19T16:28:37.616Z,9.84
2023-04-19T16:31:44.454Z,9.76
2023-04-19T16:34:43.013Z,9.76
2023-04-19T16:37:33.333Z,9.79
2023-04-19T16:48:45.187Z,9.74
2023-04-19T16:52:14.155Z,9.72
2023-04-19T16:55:58.380Z,9.70
2023-04-19T16:59:17.669Z,9.68
2023-04-19T17:02:09.730Z,9.66
2023-04-19T17:04:55.538Z,9.66
2023-04-19T17:08:03.720Z,9.69
2023-04-19T17:10:57.667Z,9.69
2023-04-19T17:13:56.651Z,9.69
2023-04-19T17:16:55.814Z,9.64
2023-04-19T17:19:57.431Z,9.57
2023-04-19T17:22:40.658Z,9.54
2023-04-19T17:25:17.366Z,9.56
2023-04-19T17:27:55.525Z,9.57
2023-04-19T17:30:47.354Z,9.52
2023-04-19T17:34:17.879Z,9.50
2023-04-19T17:37:46.286Z,9.45
2023-04-19T17:44:56.506Z,9.36
2023-04-19T17:48:47.168Z,9.32
2023-04-19T17:55:56.382Z,9.21
2023-04-19T17:59:05.990Z,9.18
2023-04-19T18:01:45.063Z,9.18
2023-04-19T18:04:23.594Z,9.18
2023-04-19T18:07:45.809Z,9.17
2023-04-19T18:10:48.084Z,9.13
2023-04-19T18:13:30.870Z,9.12
2023-04-19T18:16:19.019Z,9.16
2023-04-19T18:19:27.125Z,9.17
2023-04-19T18:21:58.814Z,9.17
2023-04-19T18:24:33.674Z,9.20
2023-04-19T18:27:10.049Z,9.22
2023-04-19T18:29:56.765Z,9.20
2023-04-19T18:32:48.201Z,9.16
2023-04-19T18:35:29.216Z,9.17
2023-04-19T18:38:06.166Z,9.15
2023-04-19T18:40:56.951Z,9.12
2023-04-19T18:44:24.826Z,9.12
2023-04-19T18:47:24.138Z,9.09
2023-04-19T18:50:12.229Z,9.07
2023-04-19T18:53:14.791Z,9.06
2023-04-19T18:56:03.667Z,9.00
2023-04-19T18:58:36.101Z,9.00
2023-04-19T19:01:15.392Z,9.02
2023-04-19T19:04:23.543Z,9.06
2023-04-19T19:07:33.379Z,9.06
2023-04-19T19:10:18.511Z,9.05
2023-04-19T19:12:55.773Z,9.07
2023-04-19T19:15:47.636Z,9.01
2023-04-19T19:18:16.490Z,9.01
2023-04-19T19:20:52.789Z,9.05
2023-04-19T19:23:35.517Z,9.06
2023-04-19T19:26:18.702Z,9.07
2023-04-19T19:29:16.065Z,9.05
2023-04-19T19:31:55.039Z,9.01
2023-04-19T19:34:30.631Z,9.00
2023-04-19T19:37:02.340Z,9.01
2023-04-19T19:39:38.206Z,9.03
2023-04-19T19:42:35.337Z,9.03
2023-04-19T19:45:20.539Z,9.02
2023-04-19T19:48:01.443Z,9.01
2023-04-19T19:51:11.990Z,9.00
2023-04-19T19:53:32.583Z,8.99
2023-04-19T19:56:10.830Z,9.00
2023-04-19T19:58:51.702Z,9.01
2023-04-19T20:01:31.887Z,9.02
2023-04-19T20:04:03.963Z,9.05
2023-04-19T20:09:36.359Z,9.01
2023-04-19T20:12:14.036Z,8.99
2023-04-19T20:15:05.303Z,9.01
2023-04-19T20:17:48.921Z,8.99
2023-04-19T20:20:34.152Z,8.97
2023-04-19T20:23:17.687Z,8.94
2023-04-19T20:26:02.840Z,8.90
2023-04-19T20:29:07.442Z,8.92
2023-04-19T20:31:53.205Z,8.92
2023-04-19T20:34:45.151Z,8.93
2023-04-19T20:37:18.191Z,8.95
2023-04-19T20:39:56.499Z,8.95
2023-04-19T20:42:33.412Z,8.98
2023-04-19T20:45:38.909Z,9.00
2023-04-19T20:48:16.188Z,8.98
2023-04-19T20:53:51.279Z,8.98
2023-04-19T20:56:33.721Z,8.95
2023-04-19T20:59:08.756Z,8.93
2023-04-19T21:01:55.333Z,8.91
2023-04-19T21:04:34.529Z,8.90
2023-04-19T21:07:06.651Z,8.89
2023-04-19T21:09:44.854Z,8.85
2023-04-19T21:12:19.573Z,8.83
2023-04-19T21:14:52.454Z,8.81
2023-04-19T21:17:24.756Z,8.78
2023-04-19T21:19:54.086Z,8.80
2023-04-19T21:22:23.157Z,8.80
2023-04-19T21:24:54.504Z,8.79
2023-04-19T21:27:30.039Z,8.78
2023-04-19T21:30:07.167Z,8.76
2023-04-19T21:32:41.052Z,8.75
2023-04-19T21:35:14.235Z,8.76
2023-04-19T21:37:45.677Z,8.73
2023-04-19T21:40:28.574Z,8.73
2023-04-19T21:43:16.056Z,8.77
2023-04-19T21:45:48.514Z,8.77
2023-04-19T21:48:30.267Z,8.73
2023-04-19T21:51:01.423Z,8.72
2023-04-19T21:53:33.818Z,8.73
2023-04-19T21:56:02.899Z,8.76
2023-04-19T21:58:37.092Z,8.80
2023-04-19T22:01:11.282Z,8.71
2023-04-19T22:03:42.639Z,8.72
2023-04-19T22:06:24.266Z,8.75
2023-04-19T22:09:05.329Z,8.76
2023-04-19T22:11:42.344Z,8.78
2023-04-19T22:14:14.097Z,8.74
2023-04-19T22:16:49.314Z,8.75
2023-04-19T22:19:24.089Z,8.77
2023-04-19T22:22:07.631Z,8.79
2023-04-19T23:13:10.002Z,8.65
